Time;durP1;ratioP1;P1;durP2;ratioP2;P2;SDS_P1;SDS_P2;PMS_P1;PMS_P2;Temp;Humidity;BMP_temperature;BMP_pressure;BME280_temperature;BME280_humidity;BME280_pressure;Samples;Min_cycle;Max_cycle;Signal;HPM_P1;HPM_P2
2022/12/11 00:05:46;;;;;;;21.53;15.37;;;;;2.30;98358.00;;;;16733638;28;20245;-48
2022/12/11 00:13:49;;;;;;;24.10;16.37;;;;;2.40;98348.00;;;;16773657;28;20789;-47
2022/12/11 00:21:53;;;;;;;23.60;16.07;;;;;2.50;98345.00;;;;16761419;28;20207;-46
2022/12/11 00:29:55;;;;;;;20.90;16.00;;;;;2.40;98347.00;;;;16711578;28;20244;-46
2022/12/11 00:37:59;;;;;;;23.10;17.20;;;;;2.40;98343.00;;;;16710179;28;20224;-47
2022/12/11 00:46:01;;;;;;;25.43;17.50;;;;;2.50;98335.00;;;;16719396;28;20245;-47
2022/12/11 00:54:06;;;;;;;27.07;17.07;;;;;2.30;98341.00;;;;16717159;28;20309;-46
2022/12/11 01:02:09;;;;;;;24.37;16.63;;;;;2.30;98356.00;;;;16732952;28;20198;-47
2022/12/11 01:10:26;;;;;;;22.93;16.77;;;;;2.60;98366.00;;;;16754781;28;20222;-47
2022/12/11 01:18:28;;;;;;;28.10;20.40;;;;;2.80;98369.00;;;;16757592;28;20608;-48
2022/12/11 01:26:32;;;;;;;24.60;17.80;;;;;2.70;98382.00;;;;16739744;28;20217;-47
2022/12/11 01:34:34;;;;;;;25.40;18.20;;;;;2.70;98385.00;;;;16734547;28;20241;-46
2022/12/11 01:42:38;;;;;;;22.53;16.90;;;;;3.20;98381.00;;;;16724703;28;20200;-47
2022/12/11 01:50:44;;;;;;;25.30;18.13;;;;;4.10;98368.00;;;;16724841;28;20367;-47
2022/12/11 01:58:50;;;;;;;26.40;19.10;;;;;4.60;98373.00;;;;16732111;28;20305;-47
2022/12/11 02:06:53;;;;;;;30.17;20.50;;;;;5.00;98374.00;;;;16735025;28;20314;-47
2022/12/11 02:15:03;;;;;;;24.90;17.70;;;;;4.20;98382.00;;;;16740747;28;20252;-47
2022/12/11 02:23:43;;;;;;;24.30;17.03;;;;;4.60;98371.00;;;;16774070;28;20208;-47
2022/12/11 02:31:50;;;;;;;28.03;19.40;;;;;4.10;98373.00;;;;16718432;28;20230;-47
2022/12/11 02:39:54;;;;;;;22.37;17.20;;;;;4.80;98358.00;;;;16740970;28;20604;-47
2022/12/11 02:47:59;;;;;;;25.07;17.93;;;;;4.00;98374.00;;;;16723055;28;20272;-46
2022/12/11 02:56:06;;;;;;;25.03;18.00;;;;;3.50;98379.00;;;;16743116;28;20231;-47
2022/12/11 03:04:10;;;;;;;24.03;19.10;;;;;3.80;98370.00;;;;16719166;28;20221;-47
2022/12/11 03:12:15;;;;;;;24.10;18.33;;;;;3.70;98362.00;;;;16718266;28;20210;-47
2022/12/11 03:20:24;;;;;;;21.87;15.97;;;;;3.20;98370.00;;;;16722512;28;20239;-46
2022/12/11 03:28:29;;;;;;;23.07;16.93;;;;;3.40;98368.00;;;;16730675;28;20214;-47
2022/12/11 03:36:55;;;;;;;22.07;16.63;;;;;3.50;98380.00;;;;16729190;28;20218;-46
2022/12/11 03:44:58;;;;;;;24.30;17.60;;;;;3.50;98379.00;;;;16730617;28;20765;-47
2022/12/11 03:53:03;;;;;;;20.90;15.67;;;;;3.30;98373.00;;;;16753716;28;20298;-45
2022/12/11 04:01:10;;;;;;;23.67;17.80;;;;;3.80;98363.00;;;;16728849;28;20718;-47
2022/12/11 04:09:13;;;;;;;22.83;16.33;;;;;3.90;98353.00;;;;16755788;28;20755;-48
2022/12/11 04:24:13;;;;;;;21.37;15.33;;;;;4.20;98351.00;;;;16749157;28;20710;-47
2022/12/11 04:25:40;;;;;;;23.60;16.33;;;;;4.70;98339.00;;;;16748863;28;20222;-47
2022/12/11 04:33:42;;;;;;;21.53;16.17;;;;;5.30;98324.00;;;;16734617;28;20224;-46
2022/12/11 04:41:46;;;;;;;19.73;15.70;;;;;4.30;98327.00;;;;16761094;28;20200;-47
2022/12/11 04:49:48;;;;;;;18.37;15.13;;;;;4.40;98312.00;;;;16763547;28;20227;-48
2022/12/11 04:57:52;;;;;;;20.10;15.03;;;;;4.60;98305.00;;;;16761961;28;20228;-46
2022/12/11 05:05:55;;;;;;;15.80;13.63;;;;;4.70;98303.00;;;;16742323;28;20224;-47
2022/12/11 05:13:58;;;;;;;17.10;13.57;;;;;4.80;98302.00;;;;16763085;28;20229;-47
2022/12/11 05:22:01;;;;;;;16.80;12.80;;;;;3.60;98332.00;;;;16758165;28;20635;-48
2022/12/11 05:30:06;;;;;;;16.23;12.17;;;;;4.20;98333.00;;;;16742446;28;20226;-46
2022/12/11 05:38:08;;;;;;;15.33;13.40;;;;;4.50;98305.00;;;;16749477;28;20882;-48
2022/12/11 05:46:14;;;;;;;19.40;13.67;;;;;4.60;98310.00;;;;16753675;28;20216;-49
2022/12/11 05:54:16;;;;;;;18.60;13.13;;;;;4.40;98292.00;;;;16747404;28;20301;-48
2022/12/11 06:02:20;;;;;;;18.07;13.57;;;;;3.80;98300.00;;;;16722384;28;20220;-48
2022/12/11 06:10:23;;;;;;;23.13;15.73;;;;;2.80;98333.00;;;;16726161;28;20225;-47
2022/12/11 06:18:27;;;;;;;16.10;12.47;;;;;3.50;98316.00;;;;16731071;28;20741;-48
2022/12/11 06:26:30;;;;;;;23.30;15.57;;;;;3.10;98322.00;;;;16714727;28;20824;-48
2022/12/11 06:34:34;;;;;;;22.77;15.27;;;;;2.10;98319.00;;;;16706420;28;20230;-47
2022/12/11 06:42:37;;;;;;;17.90;13.57;;;;;1.50;98338.00;;;;16732447;28;20690;-47
2022/12/11 06:50:41;;;;;;;16.27;14.07;;;;;1.40;98330.00;;;;16723598;28;20227;-47
2022/12/11 06:58:44;;;;;;;19.60;13.43;;;;;1.40;98342.00;;;;16730654;28;20253;-47
2022/12/11 07:06:48;;;;;;;20.43;12.97;;;;;1.40;98355.00;;;;16722423;28;20227;-48
2022/12/11 07:14:50;;;;;;;18.70;12.40;;;;;1.20;98359.00;;;;16727603;28;20228;-48
2022/12/11 07:22:54;;;;;;;18.67;14.13;;;;;1.50;98358.00;;;;16723512;28;20194;-47
2022/12/11 07:30:57;;;;;;;23.17;17.17;;;;;1.80;98357.00;;;;16721829;28;20213;-48
2022/12/11 07:39:01;;;;;;;20.80;15.60;;;;;1.70;98371.00;;;;16719255;28;20305;-46
2022/12/11 07:47:04;;;;;;;22.13;15.30;;;;;2.00;98365.00;;;;16723467;28;20533;-47
2022/12/11 07:55:09;;;;;;;24.70;17.07;;;;;2.70;98354.00;;;;16724711;28;20229;-47
2022/12/11 08:03:11;;;;;;;26.27;20.43;;;;;2.30;98364.00;;;;16721795;28;20336;-48
2022/12/11 08:11:15;;;;;;;22.67;16.63;;;;;2.90;98349.00;;;;16722667;28;20694;-48
2022/12/11 08:19:18;;;;;;;20.07;13.93;;;;;2.90;98349.00;;;;16709670;28;20734;-48
2022/12/11 08:27:22;;;;;;;22.37;16.90;;;;;3.30;98342.00;;;;16712905;28;20221;-48
2022/12/11 08:35:24;;;;;;;22.00;16.97;;;;;3.70;98333.00;;;;16710842;28;20706;-48
2022/12/11 08:43:28;;;;;;;22.57;16.07;;;;;4.90;98321.00;;;;16720461;28;20196;-48
2022/12/11 08:51:31;;;;;;;19.77;15.00;;;;;4.90;98324.00;;;;16722222;28;20333;-49
2022/12/11 08:59:35;;;;;;;22.07;16.77;;;;;4.30;98318.00;;;;16727428;28;20728;-47
2022/12/11 09:07:38;;;;;;;19.43;14.97;;;;;3.60;98330.00;;;;16744357;28;20221;-49
2022/12/11 09:15:42;;;;;;;20.30;15.40;;;;;5.40;98313.00;;;;16755077;28;20328;-48
2022/12/11 09:23:45;;;;;;;18.47;14.80;;;;;5.00;98308.00;;;;16724740;28;20221;-47
2022/12/11 09:31:49;;;;;;;22.57;16.40;;;;;5.10;98308.00;;;;16714920;28;20206;-48
2022/12/11 09:39:51;;;;;;;22.03;17.27;;;;;4.90;98309.00;;;;16715617;28;20625;-47
2022/12/11 09:47:57;;;;;;;26.17;19.70;;;;;4.90;98293.00;;;;16713518;28;20265;-47
2022/12/11 09:56:05;;;;;;;24.97;18.67;;;;;4.50;98297.00;;;;16723610;28;20731;-47
2022/12/11 10:04:30;;;;;;;28.40;19.37;;;;;4.70;98298.00;;;;16712804;28;20217;-47
2022/12/11 10:12:40;;;;;;;25.97;19.10;;;;;5.00;98294.00;;;;16721733;28;20217;-48
2022/12/11 10:20:44;;;;;;;56.37;35.67;;;;;4.80;98284.00;;;;16731055;28;20242;-47
2022/12/11 10:28:47;;;;;;;27.37;18.87;;;;;4.90;98280.00;;;;16725437;28;20211;-47
2022/12/11 10:36:51;;;;;;;21.97;17.50;;;;;5.20;98254.00;;;;16726022;28;20357;-47
2022/12/11 10:44:58;;;;;;;118.13;59.33;;;;;5.60;98245.00;;;;16730867;28;20220;-48
2022/12/11 10:53:02;;;;;;;64.13;40.73;;;;;5.00;98246.00;;;;16728336;28;21072;-47
2022/12/11 11:01:09;;;;;;;31.43;22.87;;;;;5.60;98230.00;;;;16729520;28;20742;-48
2022/12/11 11:09:31;;;;;;;21.33;16.40;;;;;5.60;98225.00;;;;16718099;28;20317;-47
2022/12/11 11:17:40;;;;;;;22.10;16.30;;;;;5.50;98218.00;;;;16734714;28;20226;-48
2022/12/11 11:25:51;;;;;;;22.80;18.00;;;;;5.40;98212.00;;;;16726650;28;20223;-48
2022/12/11 11:33:57;;;;;;;27.57;18.47;;;;;5.30;98210.00;;;;16710092;28;20734;-48
2022/12/11 11:42:06;;;;;;;26.27;17.50;;;;;6.10;98201.00;;;;16720643;28;20199;-47
2022/12/11 11:50:13;;;;;;;21.70;15.70;;;;;6.60;98183.00;;;;16707515;28;20588;-48
2022/12/11 11:58:21;;;;;;;24.83;17.87;;;;;5.70;98193.00;;;;16712634;28;20247;-47
2022/12/11 12:06:47;;;;;;;64.43;39.70;;;;;7.20;98170.00;;;;16743434;28;20835;-48
2022/12/11 12:15:17;;;;;;;27.20;19.90;;;;;6.30;98179.00;;;;16756096;28;20360;-48
2022/12/11 12:23:43;;;;;;;20.20;15.00;;;;;6.30;98179.00;;;;16714170;28;20216;-48
2022/12/11 12:31:55;;;;;;;36.17;26.30;;;;;6.00;98180.00;;;;16709713;28;20857;-47
2022/12/11 12:40:11;;;;;;;18.80;14.27;;;;;6.40;98167.00;;;;16714049;28;20601;-48
2022/12/11 12:48:15;;;;;;;18.73;15.17;;;;;6.30;98158.00;;;;16714493;28;20219;-48
2022/12/11 12:56:18;;;;;;;20.40;15.70;;;;;5.00;98166.00;;;;16719542;28;20232;-48
2022/12/11 13:04:36;;;;;;;26.73;18.60;;;;;5.40;98166.00;;;;16727211;28;20286;-48
2022/12/11 13:12:43;;;;;;;18.60;15.50;;;;;6.20;98158.00;;;;16746449;28;20257;-48
2022/12/11 13:20:50;;;;;;;27.53;19.17;;;;;6.20;98159.00;;;;16742725;28;20776;-48
2022/12/11 13:28:53;;;;;;;30.17;23.20;;;;;6.00;98165.00;;;;16738150;28;20778;-48
2022/12/11 13:36:57;;;;;;;34.43;25.47;;;;;5.30;98176.00;;;;16737467;28;20744;-48
2022/12/11 13:45:00;;;;;;;25.67;17.77;;;;;6.40;98166.00;;;;16739377;28;20212;-48
2022/12/11 13:53:04;;;;;;;22.90;17.23;;;;;6.20;98167.00;;;;16733597;28;20822;-47
2022/12/11 14:01:09;;;;;;;29.93;23.07;;;;;6.60;98163.00;;;;16755360;28;20224;-53
2022/12/11 14:09:19;;;;;;;24.20;18.07;;;;;4.40;98196.00;;;;16754606;28;20713;-48
2022/12/11 14:17:25;;;;;;;23.57;17.20;;;;;4.50;98189.00;;;;16716398;28;20708;-47
2022/12/11 14:25:29;;;;;;;25.77;19.37;;;;;4.50;98197.00;;;;16708502;28;20238;-47
2022/12/11 14:33:33;;;;;;;33.33;22.77;;;;;4.40;98210.00;;;;16703935;28;20206;-47
2022/12/11 14:41:43;;;;;;;27.87;20.80;;;;;4.30;98217.00;;;;16727012;28;20286;-47
2022/12/11 14:49:48;;;;;;;30.67;20.17;;;;;3.80;98227.00;;;;16710299;28;20699;-47
2022/12/11 14:57:56;;;;;;;31.23;20.00;;;;;3.90;98234.00;;;;16689088;28;20228;-48
2022/12/11 15:05:59;;;;;;;30.30;21.60;;;;;3.80;98238.00;;;;16717931;28;20719;-47
2022/12/11 15:14:04;;;;;;;31.90;22.90;;;;;3.90;98249.00;;;;16708007;28;20367;-48
2022/12/11 15:22:08;;;;;;;46.07;28.37;;;;;3.10;98249.00;;;;16747988;28;20560;-47
2022/12/11 15:30:32;;;;;;;40.27;25.90;;;;;3.40;98247.00;;;;16728027;28;20218;-45
2022/12/11 15:38:38;;;;;;;32.60;20.93;;;;;3.10;98253.00;;;;16741231;28;20692;-47
2022/12/11 15:46:42;;;;;;;37.60;22.40;;;;;3.40;98252.00;;;;16735743;28;20722;-47
2022/12/11 15:54:44;;;;;;;43.80;26.97;;;;;3.40;98261.00;;;;16734113;28;20233;-47
2022/12/11 16:02:49;;;;;;;48.60;31.43;;;;;2.60;98281.00;;;;16738918;28;20205;-47
2022/12/11 16:10:54;;;;;;;53.13;32.97;;;;;2.80;98274.00;;;;16745120;28;20217;-46
2022/12/11 16:18:58;;;;;;;41.57;25.17;;;;;2.70;98286.00;;;;16750941;28;20233;-46
2022/12/11 16:27:00;;;;;;;44.03;26.30;;;;;2.50;98287.00;;;;16749734;28;20577;-47
2022/12/11 16:35:05;;;;;;;36.17;26.40;;;;;2.60;98283.00;;;;16751541;28;20229;-46
2022/12/11 16:43:07;;;;;;;34.37;23.20;;;;;2.40;98286.00;;;;16714920;28;20213;-47
2022/12/11 16:51:11;;;;;;;38.63;25.77;;;;;2.50;98289.00;;;;16755099;28;20234;-48
2022/12/11 16:59:14;;;;;;;42.97;26.77;;;;;2.50;98285.00;;;;16749996;28;20297;-48
2022/12/11 17:07:19;;;;;;;42.17;26.37;;;;;2.20;98278.00;;;;16745849;28;20220;-48
2022/12/11 17:15:21;;;;;;;40.57;26.67;;;;;2.30;98287.00;;;;16755817;28;20222;-47
2022/12/11 17:23:26;;;;;;;37.90;25.20;;;;;2.20;98266.00;;;;16751996;28;20209;-47
2022/12/11 17:31:29;;;;;;;41.60;24.47;;;;;2.30;98272.00;;;;16737175;28;20703;-48
2022/12/11 17:39:33;;;;;;;42.03;25.83;;;;;2.10;98269.00;;;;16757170;28;20222;-46
2022/12/11 17:47:35;;;;;;;38.60;24.13;;;;;2.10;98267.00;;;;16755460;28;20316;-46
2022/12/11 17:55:41;;;;;;;40.33;24.93;;;;;2.00;98271.00;;;;16741847;28;20329;-47
2022/12/11 18:03:44;;;;;;;49.73;29.20;;;;;2.50;98268.00;;;;16740946;28;20266;-46
2022/12/11 18:11:47;;;;;;;39.83;25.10;;;;;2.10;98275.00;;;;16750936;28;20666;-46
2022/12/11 18:19:50;;;;;;;43.30;26.77;;;;;2.20;98267.00;;;;16751329;28;20237;-46
2022/12/11 18:27:54;;;;;;;48.97;28.20;;;;;2.00;98284.00;;;;16740296;28;20244;-48
2022/12/11 18:35:57;;;;;;;60.87;32.30;;;;;2.10;98270.00;;;;16766498;28;20221;-49
2022/12/11 18:44:01;;;;;;;45.03;27.40;;;;;2.30;98264.00;;;;16740810;28;20803;-47
2022/12/11 18:52:04;;;;;;;46.07;29.63;;;;;2.40;98262.00;;;;16713560;28;20932;-47
2022/12/11 19:00:10;;;;;;;49.50;30.33;;;;;2.10;98270.00;;;;16736101;28;20247;-44
2022/12/11 19:08:15;;;;;;;47.73;31.57;;;;;2.40;98278.00;;;;16719551;28;20245;-46
2022/12/11 19:16:21;;;;;;;49.67;30.30;;;;;2.10;98275.00;;;;16707293;28;20237;-47
2022/12/11 19:24:24;;;;;;;39.97;26.53;;;;;1.90;98284.00;;;;16705048;28;20218;-46
2022/12/11 19:32:29;;;;;;;42.37;27.40;;;;;1.70;98275.00;;;;16721213;28;20213;-45
2022/12/11 19:40:31;;;;;;;45.27;29.00;;;;;1.90;98266.00;;;;16717343;28;20232;-47
2022/12/11 19:48:37;;;;;;;43.00;25.53;;;;;1.40;98282.00;;;;16696332;28;20302;-45
2022/12/11 19:56:39;;;;;;;46.83;29.27;;;;;1.40;98281.00;;;;16719182;28;20279;-48
2022/12/11 20:04:43;;;;;;;47.80;28.97;;;;;1.20;98286.00;;;;16722795;28;20236;-48
2022/12/11 20:12:46;;;;;;;53.37;30.87;;;;;1.40;98302.00;;;;16730170;28;20208;-47
2022/12/11 20:20:50;;;;;;;47.70;30.00;;;;;2.00;98292.00;;;;16735020;22;20767;-48
2022/12/11 20:28:53;;;;;;;52.80;31.77;;;;;1.50;98308.00;;;;16688539;28;20231;-48
2022/12/11 20:36:59;;;;;;;49.57;28.73;;;;;1.50;98305.00;;;;16683948;28;20233;-49
2022/12/11 20:45:01;;;;;;;45.13;26.13;;;;;1.30;98309.00;;;;16691021;28;20640;-48
2022/12/11 20:53:05;;;;;;;46.67;30.00;;;;;1.70;98306.00;;;;16673356;28;20218;-49
2022/12/11 21:01:14;;;;;;;48.27;28.47;;;;;1.50;98310.00;;;;16674393;28;20230;-48
2022/12/11 21:09:17;;;;;;;44.47;27.10;;;;;1.70;98303.00;;;;16689090;28;20218;-48
2022/12/11 21:17:20;;;;;;;58.93;32.30;;;;;1.60;98300.00;;;;16749089;28;20320;-48
2022/12/11 21:25:24;;;;;;;51.87;32.87;;;;;1.80;98301.00;;;;16759665;28;20292;-49
2022/12/11 21:33:26;;;;;;;53.33;30.43;;;;;1.90;98293.00;;;;16744811;28;20210;-48
2022/12/11 21:41:31;;;;;;;50.90;30.17;;;;;1.90;98301.00;;;;16760595;28;20301;-49
2022/12/11 21:49:33;;;;;;;45.20;27.80;;;;;2.00;98306.00;;;;16754509;28;20304;-49
2022/12/11 21:57:37;;;;;;;46.20;31.20;;;;;2.30;98307.00;;;;16745664;28;20250;-48
2022/12/11 22:05:39;;;;;;;52.17;30.10;;;;;2.30;98314.00;;;;16753682;28;20668;-49
2022/12/11 22:13:44;;;;;;;44.87;29.50;;;;;2.50;98296.00;;;;16765881;28;20202;-49
2022/12/11 22:21:47;;;;;;;47.30;28.00;;;;;3.00;98307.00;;;;16762663;28;20838;-50
2022/12/11 22:29:51;;;;;;;46.87;29.10;;;;;2.50;98301.00;;;;16766778;28;20217;-48
2022/12/11 22:37:53;;;;;;;43.10;29.10;;;;;2.30;98308.00;;;;16765625;28;20352;-49
2022/12/11 22:45:57;;;;;;;47.30;32.00;;;;;2.60;98304.00;;;;16781086;28;20736;-48
2022/12/11 22:54:00;;;;;;;51.37;30.27;;;;;2.80;98307.00;;;;16751081;28;20202;-49
2022/12/11 23:02:04;;;;;;;41.97;29.00;;;;;2.70;98312.00;;;;16768355;28;20251;-49
2022/12/11 23:10:08;;;;;;;43.23;29.67;;;;;2.90;98307.00;;;;16766480;28;20354;-49
2022/12/11 23:18:12;;;;;;;51.40;29.90;;;;;2.70;98313.00;;;;16755083;28;20218;-49
2022/12/11 23:26:17;;;;;;;45.93;30.13;;;;;2.70;98313.00;;;;16759002;28;20841;-49
2022/12/11 23:34:21;;;;;;;48.53;31.20;;;;;2.50;98316.00;;;;16760712;28;20753;-49
2022/12/11 23:42:23;;;;;;;46.63;29.67;;;;;3.00;98310.00;;;;16763118;28;20309;-50
2022/12/11 23:50:30;;;;;;;37.43;25.03;;;;;3.00;98307.00;;;;16760712;28;20214;-50
2022/12/11 23:58:32;;;;;;;47.90;30.60;;;;;3.10;98310.00;;;;16761706;28;20642;-49
